• Join FlightAware (Why Join?)
  • Login
  • US Flag 
02:06AM EDT


 

Airport Tracker/Info


-or-


 

Live Flight TrackerFlight Track Log ✈ SKW6345 ✈ 07-Aug-2013 ✈ KSFO - KBZN

Flight Track Log - Related Links

Times and Time Zones

All times are in EDT time to prevent confusion due to time zone crossing. See the SKW6345 flight status page for this flight to view local times or setup timezone preferences in your user account.

Time Position Orientation Groundspeed Altitude Reporting Facility
EDT Latitude Longitude Course Direction KTS MPH feet Rate Location/Type
11:25AM 37.6667 -122.3333 38° Northeast 185 213 1,900  Level Northern Cal TRACON
11:26AM 37.7000 -122.2667 58° Northeast 244 281 4,100 2,340 Climbing Northern Cal TRACON
11:27AM 37.6302 -122.4130 120° Southeast  Level FlightAware Approximate
11:27AM 37.7500 -122.2000 47° Northeast 295 339 6,600  Level Northern Cal TRACON
11:28AM 37.6890 -122.2944 38° Northeast  Level FlightAware Approximate
11:28AM 37.8167 -122.1333 38° Northeast 287 330 9,000  Level Northern Cal TRACON
11:29AM 37.7930 -122.1904 38° Northeast  Level FlightAware Approximate
11:29AM 37.8833 -122.0833 31° Northeast 309 356 11,100  Level Northern Cal TRACON
11:30AM 37.8970 -122.0863 38° Northeast  Level FlightAware Approximate
11:30AM 37.9314 -122.0306 41° Northeast 308 354 12,400  Level Oakland Center
11:31AM 38.0022 -121.9639 37° Northeast 317 365 14,300 1,740 Climbing Oakland Center
11:32AM 38.0761 -121.8956 36° Northeast 329 379 16,000 1,620 Climbing Oakland Center
11:33AM 38.1533 -121.8244 36° Northeast 341 392 17,600 1,560 Climbing Oakland Center
11:34AM 38.2467 -121.7367 36° Northeast 348 400 19,300 1,500 Climbing Oakland Center
11:35AM 38.3272 -121.6619 36° Northeast 357 411 20,700 960 Climbing Oakland Center
11:36AM 38.4108 -121.5842 36° Northeast 371 427 21,300 720 Climbing Oakland Center
11:37AM 38.4961 -121.5153 32° Northeast 387 445 22,200 960 Climbing Oakland Center
11:38AM 38.5911 -121.4369 33° Northeast 382 440 23,300 1,020 Climbing Oakland Center
11:39AM 38.6792 -121.3639 33° Northeast 379 436 24,300 960 Climbing Oakland Center
11:40AM 38.7647 -121.2908 34° Northeast 374 430 25,300 1,020 Climbing Oakland Center
11:41AM 38.8531 -121.2175 33° Northeast 372 428 26,400 1,020 Climbing Oakland Center
11:42AM 38.9400 -121.1461 33° Northeast 371 427 27,400 1,020 Climbing Oakland Center
11:43AM 39.0469 -121.0547 34° Northeast 381 438 28,600 1,020 Climbing Oakland Center
11:44AM 39.1367 -120.9789 33° Northeast 385 443 29,600 780 Climbing Oakland Center
11:45AM 39.2292 -120.9011 33° Northeast 392 451 30,200 540 Climbing Oakland Center
11:46AM 39.3228 -120.8194 34° Northeast 403 464 30,800 360 Climbing Oakland Center
11:47AM 39.4203 -120.7369 33° Northeast 414 476 31,000 60 Climbing Oakland Center
11:48AM 39.5206 -120.6508 34° Northeast 426 490 31,000  Level Oakland Center
11:49AM 39.6206 -120.5650 33° Northeast 431 496 31,000  Level Oakland Center
11:50AM 39.7167 -120.4817 34° Northeast 421 484 31,000 60 Level Oakland Center
11:51AM 39.8119 -120.4017 33° Northeast 412 474 31,200 300 Climbing Oakland Center
11:52AM 39.9047 -120.3200 34° Northeast 404 465 31,700 360 Climbing Oakland Center
11:53AM 40.0181 -120.2228 33° Northeast 405 466 32,000 240 Climbing Oakland Center
11:54AM 40.1028 -120.1492 34° Northeast 411 473 32,300 420 Climbing Oakland Center
11:55AM 40.1967 -120.0667 34° Northeast 407 468 32,900 300 Climbing Oakland Center
11:56AM 40.2897 -119.9847 34° Northeast 403 464 33,000  Climbing Oakland Center
11:57AM 40.4053 -119.8836 34° Northeast 414 476 33,000  Level Oakland Center
11:58AM 40.4989 -119.8011 34° Northeast 408 470 33,000  Level Oakland Center
11:59AM 40.5764 -119.7322 34° Northeast 404 465 33,000  Level Oakland Center
12:00PM 40.6892 -119.6311 34° Northeast 409 471 33,000  Level Oakland Center
12:01PM 40.7831 -119.5467 34° Northeast 411 473 33,000  Level Oakland Center
12:03PM 40.8814 -119.4583 34° Northeast 413 475 33,000  Level Oakland Center
12:04PM 40.9728 -119.3764 34° Northeast 413 475 33,000  Level Oakland Center
12:04PM 41.0636 -119.2947 34° Northeast 412 474 33,000  Level Salt Lake Center
12:05PM 41.1561 -119.2111 34° Northeast 416 479 33,000  Level Salt Lake Center
12:06PM 41.2617 -119.1150 34° Northeast 413 475 33,000  Level Salt Lake Center
12:08PM 41.3528 -119.0308 35° Northeast 414 476 33,000  Level Salt Lake Center
12:09PM 41.4425 -118.9489 34° Northeast 410 472 33,000  Level Salt Lake Center
12:10PM 41.5483 -118.8525 34° Northeast 410 472 33,000  Level Salt Lake Center
12:11PM 41.6383 -118.7686 35° Northeast 412 474 33,000  Level Salt Lake Center
12:12PM 41.7425 -118.6722 35° Northeast 408 470 33,000  Level Salt Lake Center
12:13PM 41.8325 -118.5892 35° Northeast 408 470 33,000  Level Salt Lake Center
12:14PM 41.9361 -118.4914 35° Northeast 407 468 33,000  Level Salt Lake Center
12:15PM 42.0256 -118.4075 35° Northeast 409 471 33,000  Level Salt Lake Center
12:16PM 42.1289 -118.3097 35° Northeast 406 467 33,000  Level Salt Lake Center
12:17PM 42.2189 -118.2253 35° Northeast 408 470 33,000  Level Salt Lake Center
12:18PM 42.3217 -118.1228 36° Northeast 409 471 33,000  Level Salt Lake Center
12:19PM 42.4083 -118.0383 36° Northeast 402 463 33,000  Level Salt Lake Center
12:20PM 42.5114 -117.9406 35° Northeast 404 465 33,000  Level Salt Lake Center
12:21PM 42.5972 -117.8514 37° Northeast 407 468 33,000  Level Salt Lake Center
12:22PM 42.6592 -117.7336 54° Northeast 401 461 33,000  Level Salt Lake Center
12:23PM 42.7342 -117.5972 53° Northeast 402 463 33,000  Level Salt Lake Center
12:24PM 42.7989 -117.4822 52° Northeast 399 459 33,000  Level Salt Lake Center
12:25PM 42.8717 -117.3447 54° Northeast 401 461 33,000  Level Salt Lake Center
12:26PM 42.9344 -117.2283 54° Northeast 400 460 33,000  Level Salt Lake Center
12:27PM 43.0078 -117.0917 54° Northeast 400 460 33,000  Level Salt Lake Center
12:28PM 43.0706 -116.9750 54° Northeast 399 459 33,000  Level Salt Lake Center
12:29PM 43.1436 -116.8378 54° Northeast 398 458 33,000  Level Salt Lake Center
12:30PM 43.2056 -116.7200 54° Northeast 399 459 33,000  Level Salt Lake Center
12:31PM 43.2783 -116.5817 54° Northeast 400 460 33,000  Level Salt Lake Center
12:32PM 43.3403 -116.4636 54° Northeast 400 460 33,000  Level Salt Lake Center
12:33PM 43.4119 -116.3247 55° Northeast 400 460 33,000  Level Salt Lake Center
12:34PM 43.4742 -116.2067 54° Northeast 399 459 33,000  Level Salt Lake Center
12:35PM 43.5456 -116.0667 55° Northeast 400 460 33,000  Level Salt Lake Center
12:36PM 43.6081 -115.9472 54° Northeast 402 463 33,000  Level Salt Lake Center
12:37PM 43.6789 -115.8067 55° Northeast 401 461 33,000  Level Salt Lake Center
12:39PM 43.7406 -115.6858 55° Northeast 402 463 33,000  Level Salt Lake Center
12:40PM 43.8117 -115.5442 55° Northeast 405 466 33,000  Level Salt Lake Center
12:41PM 43.8731 -115.4242 55° Northeast 400 460 33,000  Level Salt Lake Center
12:42PM 43.9442 -115.2814 55° Northeast 404 465 33,000  Level Salt Lake Center
12:43PM 44.0053 -115.1597 55° Northeast 403 464 33,000  Level Salt Lake Center
12:44PM 44.0767 -115.0172 55° Northeast 403 464 33,000  Level Salt Lake Center
12:45PM 44.1372 -114.8928 56° Northeast 406 467 33,000  Level Salt Lake Center
12:46PM 44.1986 -114.7706 55° Northeast 405 466 33,000  Level Salt Lake Center
12:47PM 44.2689 -114.6261 56° Northeast 403 464 33,000  Level Salt Lake Center
12:48PM 44.3292 -114.5025 56° Northeast 404 465 33,000  Level Salt Lake Center
12:49PM 44.4017 -114.3569 55° Northeast 408 470 33,000  Level Salt Lake Center
12:50PM 44.4614 -114.2303 57° Northeast 408 470 33,000  Level Salt Lake Center
12:51PM 44.5331 -114.0839 55° Northeast 409 471 33,000  Level Salt Lake Center
12:52PM 44.5928 -113.9561 57° Northeast 411 473 33,000  Level Salt Lake Center
12:53PM 44.6633 -113.8022 57° Northeast 405 466 33,000  Level Salt Lake Center
12:54PM 44.7242 -113.6742 56° Northeast 410 472 33,000  Level Salt Lake Center
12:55PM 44.7869 -113.5453 56° Northeast 415 478 33,000  Level Salt Lake Center
12:56PM 44.8553 -113.3969 57° Northeast 408 470 33,000  Level Salt Lake Center
12:57PM 44.9142 -113.2700 57° Northeast 404 465 33,000  Level Salt Lake Center
12:58PM 44.9853 -113.1206 56° Northeast 409 471 33,000 -120 Level Salt Lake Center
12:59PM 45.0444 -112.9933 57° Northeast 407 468 32,800 -780 Descending Salt Lake Center
01:00PM 45.1139 -112.8419 57° Northeast 411 473 31,500 -1,380 Descending Salt Lake Center
01:01PM 45.1717 -112.7158 57° Northeast 400 460 30,000 -1,560 Descending Salt Lake Center
01:02PM 45.2364 -112.5750 57° Northeast 384 442 28,300 -1,620 Descending Salt Lake Center
01:03PM 45.2856 -112.4558 60° Northeast 373 429 26,700 -1,740 Descending Salt Lake Center
01:04PM 45.3389 -112.3178 61° Northeast 360 414 24,800 -1,800 Descending Salt Lake Center
01:05PM 45.3847 -112.2028 60° Northeast 351 404 23,100 -1,680 Descending Salt Lake Center
01:06PM 45.4300 -112.0836 62° Northeast 343 395 21,400 -1,680 Descending Salt Lake Center
01:07PM 45.4747 -111.9678 61° Northeast 336 387 19,700 -1,680 Descending Salt Lake Center
01:09PM 45.5178 -111.8556 61° Northeast 328 377 18,000 -1,800 Descending Salt Lake Center
01:10PM 45.5686 -111.7228 61° Northeast 321 369 16,100 -1,800 Descending Salt Lake Center
01:12PM 45.6489 -111.5136 61° Northeast 300 345 12,600 -1,680 Descending Salt Lake Center
01:13PM 45.7014 -111.4342 47° Northeast 293 337 10,900 -2,040 Descending Salt Lake Center
01:14PM 45.7781 -111.4261 North 284 327 8,400 -1,980 Descending Salt Lake Center
01:15PM 45.8464 -111.4564 343° North 283 326 6,900 -780 Descending Salt Lake Center
01:16PM 45.8883 -111.3844 50° Northeast 249 287 6,800 -60 Descending Salt Lake Center
01:17PM 45.8953 -111.3172 82° East 219 252 6,800 -240 Level Salt Lake Center
01:18PM 45.8539 -111.2594 136° Southeast 185 213 6,400 -660 Descending Salt Lake Center
01:19PM 45.8231 -111.2158 135° Southeast 172 198 5,500 -840 Descending Salt Lake Center
01:20PM 45.7942 -111.1753 136° Southeast 158 182 4,700 -780 Descending Salt Lake Center